LOT2CF EDDH-EPWA
Flight info
| Callsign | LOT2CF |
|---|---|
| Flight time | 1h 8m |
| Altitude | 39000 |
| Route | RAMAR6G/33 RAMAR Z998 RATMO DCT SUBIX L980 ADVAB P150 BIMPA |
| Aircraft | E195/M-SDE3GILORVW/S |
Departure
| Time | 2026-05-04 17:20 |
|---|---|
| Airport | Hamburg Helmut Schmidt Airport (EDDH) |
Arrival
| Time | 2026-05-04 18:29 |
|---|---|
| Airport | Warsaw Chopin Airport (EPWA) |
| Time | Latitude | Longitude | Altitude | Speed | Heading |
|---|---|---|---|---|---|
| 2026-05-04 16:39 | 53.62892 | 10.00212 | 48 ft | 0 kts | 122° |
| 2026-05-04 17:14 | 53.62902 | 10.00186 | 47 ft | 4 kts | 122° |
| 2026-05-04 17:14 | 53.62931 | 10.00109 | 47 ft | 4 kts | 122° |
| 2026-05-04 17:15 | 53.62942 | 10.00079 | 45 ft | 4 kts | 140° |
| 2026-05-04 17:15 | 53.62974 | 10.00081 | 48 ft | 2 kts | 212° |
| 2026-05-04 17:16 | 53.62975 | 10.00082 | 48 ft | 0 kts | 212° |
| 2026-05-04 17:18 | 53.62933 | 10.00035 | 48 ft | 6 kts | 221° |
| 2026-05-04 17:19 | 53.62896 | 9.99913 | 49 ft | 6 kts | 245° |
| 2026-05-04 17:19 | 53.62875 | 9.99737 | 46 ft | 8 kts | 326° |
| 2026-05-04 17:20 | 53.63245 | 9.99417 | 49 ft | 87 kts | 333° |
| 2026-05-04 17:20 | 53.64902 | 9.97965 | 379 ft | 164 kts | 330° |
| 2026-05-04 17:20 | 53.65926 | 9.96970 | 981 ft | 174 kts | 326° |
| 2026-05-04 17:21 | 53.68151 | 9.94976 | 2324 ft | 190 kts | 335° |
| 2026-05-04 17:21 | 53.70920 | 9.94549 | 3707 ft | 210 kts | 358° |
| 2026-05-04 17:22 | 53.72413 | 9.94641 | 4362 ft | 223 kts | 1° |
| 2026-05-04 17:22 | 53.73998 | 9.95525 | 4593 ft | 265 kts | 32° |
| 2026-05-04 17:23 | 53.76903 | 10.04110 | 6947 ft | 294 kts | 64° |
| 2026-05-04 17:23 | 53.77777 | 10.07256 | 7787 ft | 298 kts | 64° |
| 2026-05-04 17:23 | 53.79523 | 10.13620 | 9441 ft | 304 kts | 65° |
| 2026-05-04 17:24 | 53.80404 | 10.16896 | 10218 ft | 310 kts | 65° |
| 2026-05-04 17:24 | 53.83149 | 10.27600 | 12068 ft | 342 kts | 66° |
| 2026-05-04 17:25 | 53.84077 | 10.31345 | 12922 ft | 347 kts | 67° |
| 2026-05-04 17:25 | 53.84434 | 10.39434 | 14605 ft | 355 kts | 105° |
| 2026-05-04 17:26 | 53.83221 | 10.47677 | 16240 ft | 366 kts | 105° |
| 2026-05-04 17:26 | 53.81393 | 10.60585 | 18492 ft | 385 kts | 105° |
| 2026-05-04 17:27 | 53.80036 | 10.69462 | 19848 ft | 394 kts | 114° |
| 2026-05-04 17:27 | 53.77257 | 10.77431 | 21161 ft | 398 kts | 127° |
| 2026-05-04 17:28 | 53.74286 | 10.85364 | 22679 ft | 398 kts | 127° |
| 2026-05-04 17:29 | 53.69140 | 10.96134 | 24497 ft | 390 kts | 154° |
| 2026-05-04 17:29 | 53.62919 | 11.05240 | 26063 ft | 424 kts | 121° |
| 2026-05-04 17:30 | 53.60935 | 11.20131 | 27458 ft | 445 kts | 105° |
| 2026-05-04 17:31 | 53.59776 | 11.30453 | 28335 ft | 452 kts | 105° |
| 2026-05-04 17:31 | 53.57991 | 11.46168 | 29871 ft | 456 kts | 105° |
| 2026-05-04 17:32 | 53.56774 | 11.56665 | 30765 ft | 457 kts | 105° |
| 2026-05-04 17:33 | 53.54936 | 11.72337 | 32082 ft | 456 kts | 105° |
| 2026-05-04 17:33 | 53.54332 | 11.77594 | 32044 ft | 457 kts | 104° |
| 2026-05-04 17:34 | 53.51988 | 11.98539 | 32006 ft | 455 kts | 104° |
| 2026-05-04 17:35 | 53.49046 | 12.24666 | 31963 ft | 456 kts | 104° |
| 2026-05-04 17:35 | 53.48461 | 12.29854 | 32439 ft | 445 kts | 104° |
| 2026-05-04 17:36 | 53.47875 | 12.34917 | 33111 ft | 439 kts | 105° |
| 2026-05-04 17:36 | 53.47274 | 12.39909 | 33630 ft | 434 kts | 105° |
| 2026-05-04 17:36 | 53.46678 | 12.44855 | 34078 ft | 431 kts | 105° |
| 2026-05-04 17:36 | 53.46078 | 12.49768 | 34431 ft | 429 kts | 104° |
| 2026-05-04 17:37 | 53.45479 | 12.54658 | 34767 ft | 427 kts | 104° |
| 2026-05-04 17:37 | 53.44878 | 12.59536 | 35066 ft | 427 kts | 104° |
| 2026-05-04 17:37 | 53.44278 | 12.64419 | 35328 ft | 428 kts | 104° |
| 2026-05-04 17:37 | 53.43677 | 12.69308 | 35557 ft | 429 kts | 104° |
| 2026-05-04 17:38 | 53.43073 | 12.74221 | 35739 ft | 432 kts | 104° |
| 2026-05-04 17:38 | 53.42459 | 12.79167 | 35907 ft | 434 kts | 104° |
| 2026-05-04 17:38 | 53.41848 | 12.84135 | 36122 ft | 436 kts | 104° |
| 2026-05-04 17:38 | 53.41237 | 12.89113 | 36348 ft | 437 kts | 104° |
| 2026-05-04 17:39 | 53.40009 | 12.99108 | 36768 ft | 439 kts | 103° |
| 2026-05-04 17:39 | 53.39411 | 13.04126 | 36984 ft | 440 kts | 103° |
| 2026-05-04 17:39 | 53.38815 | 13.09166 | 37203 ft | 441 kts | 103° |
| 2026-05-04 17:40 | 53.38224 | 13.14198 | 37460 ft | 440 kts | 103° |
| 2026-05-04 17:40 | 53.37638 | 13.19226 | 37725 ft | 439 kts | 103° |
| 2026-05-04 17:40 | 53.37054 | 13.24240 | 37999 ft | 438 kts | 103° |
| 2026-05-04 17:40 | 53.36471 | 13.29245 | 38262 ft | 437 kts | 103° |
| 2026-05-04 17:41 | 53.35892 | 13.34234 | 38523 ft | 436 kts | 103° |
| 2026-05-04 17:41 | 53.35309 | 13.39205 | 38735 ft | 435 kts | 103° |
| 2026-05-04 17:41 | 53.34724 | 13.44157 | 38975 ft | 427 kts | 103° |
| 2026-05-04 17:41 | 53.34143 | 13.49040 | 39044 ft | 430 kts | 103° |
| 2026-05-04 17:42 | 53.32939 | 13.58952 | 39050 ft | 439 kts | 103° |
| 2026-05-04 17:42 | 53.31694 | 13.69046 | 39072 ft | 447 kts | 103° |
| 2026-05-04 17:43 | 53.30397 | 13.79377 | 38948 ft | 460 kts | 103° |
| 2026-05-04 17:43 | 53.29063 | 13.89901 | 38953 ft | 465 kts | 103° |
| 2026-05-04 17:44 | 53.27713 | 14.00505 | 38941 ft | 467 kts | 103° |
| 2026-05-04 17:44 | 53.26350 | 14.11129 | 38945 ft | 468 kts | 104° |
| 2026-05-04 17:45 | 53.24972 | 14.21747 | 38944 ft | 468 kts | 104° |
| 2026-05-04 17:45 | 53.23582 | 14.32352 | 38944 ft | 468 kts | 104° |
| 2026-05-04 17:46 | 53.22193 | 14.42961 | 38947 ft | 468 kts | 104° |
| 2026-05-04 17:46 | 53.20795 | 14.53556 | 38948 ft | 468 kts | 104° |
| 2026-05-04 17:47 | 53.19385 | 14.64149 | 38946 ft | 468 kts | 104° |
| 2026-05-04 17:47 | 53.17962 | 14.74732 | 38945 ft | 468 kts | 104° |
| 2026-05-04 17:48 | 53.16530 | 14.85308 | 38939 ft | 468 kts | 104° |
| 2026-05-04 17:48 | 53.15100 | 14.95801 | 38940 ft | 468 kts | 104° |
| 2026-05-04 17:49 | 53.13649 | 15.06363 | 38941 ft | 468 kts | 104° |
| 2026-05-04 17:49 | 53.12190 | 15.16914 | 38941 ft | 468 kts | 104° |
| 2026-05-04 17:50 | 53.10720 | 15.27461 | 38940 ft | 468 kts | 105° |
| 2026-05-04 17:50 | 53.09241 | 15.38000 | 38943 ft | 468 kts | 105° |
| 2026-05-04 17:51 | 53.07753 | 15.48522 | 38947 ft | 467 kts | 105° |
| 2026-05-04 17:51 | 53.06258 | 15.59026 | 38945 ft | 467 kts | 105° |
| 2026-05-04 17:52 | 53.04755 | 15.69526 | 38940 ft | 467 kts | 105° |
| 2026-05-04 17:52 | 53.03241 | 15.80018 | 38940 ft | 467 kts | 105° |
| 2026-05-04 17:53 | 53.01718 | 15.90507 | 38938 ft | 467 kts | 105° |
| 2026-05-04 17:53 | 53.00188 | 16.00977 | 38940 ft | 466 kts | 105° |
| 2026-05-04 17:54 | 52.98646 | 16.11418 | 38939 ft | 466 kts | 105° |
| 2026-05-04 17:54 | 52.97100 | 16.21859 | 38938 ft | 466 kts | 105° |
| 2026-05-04 17:55 | 52.95546 | 16.32295 | 38939 ft | 466 kts | 105° |
| 2026-05-04 17:55 | 52.93980 | 16.42720 | 38928 ft | 465 kts | 105° |
| 2026-05-04 17:56 | 52.92408 | 16.53119 | 38939 ft | 465 kts | 105° |
| 2026-05-04 17:56 | 52.90834 | 16.63508 | 38938 ft | 465 kts | 105° |
| 2026-05-04 17:57 | 52.89251 | 16.73900 | 38937 ft | 465 kts | 105° |
| 2026-05-04 17:57 | 52.87648 | 16.84270 | 38938 ft | 465 kts | 105° |
| 2026-05-04 17:58 | 52.86045 | 16.94621 | 38940 ft | 462 kts | 105° |
| 2026-05-04 17:58 | 52.84445 | 17.04909 | 38942 ft | 462 kts | 105° |
| 2026-05-04 17:59 | 52.82839 | 17.15115 | 38937 ft | 462 kts | 106° |
| 2026-05-04 18:00 | 52.80422 | 17.30526 | 38944 ft | 462 kts | 106° |
| 2026-05-04 18:00 | 52.78779 | 17.40781 | 38946 ft | 460 kts | 106° |
| 2026-05-04 18:01 | 52.77131 | 17.50992 | 38934 ft | 460 kts | 106° |
| 2026-05-04 18:01 | 52.75481 | 17.61198 | 38935 ft | 460 kts | 106° |
| 2026-05-04 18:02 | 52.73250 | 17.74836 | 38937 ft | 460 kts | 106° |
| 2026-05-04 18:02 | 52.71583 | 17.85025 | 38927 ft | 460 kts | 107° |
| 2026-05-04 18:03 | 52.69913 | 17.95131 | 38932 ft | 460 kts | 106° |
| 2026-05-04 18:03 | 52.68249 | 18.05253 | 38914 ft | 449 kts | 107° |
| 2026-05-04 18:04 | 52.67424 | 18.10141 | 38879 ft | 437 kts | 107° |
| 2026-05-04 18:04 | 52.66606 | 18.14972 | 38862 ft | 428 kts | 107° |
| 2026-05-04 18:04 | 52.65036 | 18.24197 | 38789 ft | 404 kts | 107° |
| 2026-05-04 18:05 | 52.64293 | 18.28529 | 38592 ft | 393 kts | 107° |
| 2026-05-04 18:05 | 52.63557 | 18.32808 | 38244 ft | 384 kts | 110° |
| 2026-05-04 18:05 | 52.62623 | 18.36867 | 37822 ft | 376 kts | 116° |
| 2026-05-04 18:05 | 52.61552 | 18.40757 | 37351 ft | 371 kts | 117° |
| 2026-05-04 18:06 | 52.59442 | 18.48449 | 36296 ft | 368 kts | 117° |
| 2026-05-04 18:06 | 52.58389 | 18.52279 | 35723 ft | 368 kts | 117° |
| 2026-05-04 18:06 | 52.57337 | 18.56131 | 35134 ft | 370 kts | 117° |
| 2026-05-04 18:07 | 52.56281 | 18.60000 | 34532 ft | 373 kts | 117° |
| 2026-05-04 18:07 | 52.55219 | 18.63909 | 33906 ft | 377 kts | 117° |
| 2026-05-04 18:07 | 52.54145 | 18.67862 | 33184 ft | 381 kts | 117° |
| 2026-05-04 18:07 | 52.53061 | 18.71860 | 32453 ft | 385 kts | 116° |
| 2026-05-04 18:08 | 52.51965 | 18.75906 | 31695 ft | 391 kts | 116° |
| 2026-05-04 18:08 | 52.50855 | 18.80009 | 30927 ft | 396 kts | 116° |
| 2026-05-04 18:08 | 52.49731 | 18.84171 | 30106 ft | 402 kts | 116° |
| 2026-05-04 18:08 | 52.48589 | 18.88406 | 29104 ft | 410 kts | 116° |
| 2026-05-04 18:09 | 52.46248 | 18.97109 | 27097 ft | 422 kts | 116° |
| 2026-05-04 18:09 | 52.43884 | 19.05882 | 25664 ft | 418 kts | 116° |
| 2026-05-04 18:10 | 52.42714 | 19.10220 | 25045 ft | 414 kts | 116° |
| 2026-05-04 18:10 | 52.41556 | 19.14511 | 24448 ft | 410 kts | 116° |
| 2026-05-04 18:10 | 52.40407 | 19.18763 | 23869 ft | 406 kts | 116° |
| 2026-05-04 18:10 | 52.39273 | 19.22963 | 23314 ft | 400 kts | 116° |
| 2026-05-04 18:11 | 52.38150 | 19.27111 | 22676 ft | 396 kts | 116° |
| 2026-05-04 18:11 | 52.37042 | 19.31208 | 22050 ft | 392 kts | 116° |
| 2026-05-04 18:11 | 52.35946 | 19.35259 | 21437 ft | 388 kts | 116° |
| 2026-05-04 18:11 | 52.34861 | 19.39270 | 20838 ft | 384 kts | 116° |
| 2026-05-04 18:12 | 52.33787 | 19.43241 | 20254 ft | 380 kts | 116° |
| 2026-05-04 18:12 | 52.32722 | 19.47174 | 19676 ft | 377 kts | 116° |
| 2026-05-04 18:12 | 52.31668 | 19.51067 | 19125 ft | 373 kts | 116° |
| 2026-05-04 18:12 | 52.30621 | 19.54932 | 18571 ft | 370 kts | 116° |
| 2026-05-04 18:13 | 52.29585 | 19.58755 | 17992 ft | 367 kts | 116° |
| 2026-05-04 18:13 | 52.28558 | 19.62545 | 17401 ft | 363 kts | 117° |
| 2026-05-04 18:13 | 52.26530 | 19.70026 | 16222 ft | 357 kts | 117° |
| 2026-05-04 18:14 | 52.25528 | 19.73718 | 15654 ft | 355 kts | 117° |
| 2026-05-04 18:14 | 52.24532 | 19.77385 | 15100 ft | 352 kts | 117° |
| 2026-05-04 18:14 | 52.23545 | 19.81017 | 14564 ft | 349 kts | 117° |
| 2026-05-04 18:15 | 52.21625 | 19.88066 | 14020 ft | 327 kts | 118° |
| 2026-05-04 18:15 | 52.19796 | 19.94720 | 13251 ft | 318 kts | 118° |
| 2026-05-04 18:15 | 52.18897 | 19.98000 | 12781 ft | 316 kts | 118° |
| 2026-05-04 18:16 | 52.18002 | 20.01261 | 12334 ft | 314 kts | 118° |
| 2026-05-04 18:16 | 52.17114 | 20.04496 | 11883 ft | 312 kts | 117° |
| 2026-05-04 18:16 | 52.16232 | 20.07711 | 11448 ft | 310 kts | 117° |
| 2026-05-04 18:17 | 52.14495 | 20.14048 | 10598 ft | 306 kts | 117° |
| 2026-05-04 18:17 | 52.13628 | 20.17206 | 10192 ft | 304 kts | 117° |
| 2026-05-04 18:17 | 52.11912 | 20.23461 | 9356 ft | 300 kts | 116° |
| 2026-05-04 18:18 | 52.11063 | 20.26549 | 8950 ft | 298 kts | 116° |
| 2026-05-04 18:18 | 52.10222 | 20.29609 | 8545 ft | 295 kts | 116° |
| 2026-05-04 18:18 | 52.09388 | 20.32646 | 8143 ft | 293 kts | 116° |
| 2026-05-04 18:18 | 52.08548 | 20.35711 | 7515 ft | 300 kts | 116° |
| 2026-05-04 18:19 | 52.06908 | 20.41673 | 7279 ft | 284 kts | 117° |
| 2026-05-04 18:19 | 52.06091 | 20.44588 | 7163 ft | 284 kts | 117° |
| 2026-05-04 18:19 | 52.05270 | 20.47517 | 7034 ft | 285 kts | 117° |
| 2026-05-04 18:20 | 52.04450 | 20.50451 | 6889 ft | 286 kts | 117° |
| 2026-05-04 18:20 | 52.03627 | 20.53400 | 6752 ft | 288 kts | 117° |
| 2026-05-04 18:20 | 52.02795 | 20.56366 | 6624 ft | 289 kts | 117° |
| 2026-05-04 18:20 | 52.01960 | 20.59325 | 6481 ft | 288 kts | 117° |
| 2026-05-04 18:21 | 52.01130 | 20.62274 | 6351 ft | 287 kts | 117° |
| 2026-05-04 18:21 | 52.00303 | 20.65213 | 6205 ft | 286 kts | 117° |
| 2026-05-04 18:21 | 51.99473 | 20.68145 | 6066 ft | 286 kts | 117° |
| 2026-05-04 18:21 | 51.98646 | 20.71070 | 5929 ft | 286 kts | 117° |
| 2026-05-04 18:22 | 51.97818 | 20.73998 | 5795 ft | 285 kts | 117° |
| 2026-05-04 18:22 | 51.96992 | 20.76913 | 5657 ft | 284 kts | 117° |
| 2026-05-04 18:22 | 51.96166 | 20.79823 | 5529 ft | 284 kts | 117° |
| 2026-05-04 18:22 | 51.95341 | 20.82734 | 5391 ft | 284 kts | 117° |
| 2026-05-04 18:23 | 51.94523 | 20.85638 | 5248 ft | 282 kts | 117° |
| 2026-05-04 18:23 | 51.93851 | 20.88683 | 4758 ft | 290 kts | 104° |
| 2026-05-04 18:23 | 51.93711 | 20.91954 | 4265 ft | 293 kts | 87° |
| 2026-05-04 18:23 | 51.94274 | 20.95108 | 3808 ft | 293 kts | 63° |
| 2026-05-04 18:24 | 51.95255 | 20.98005 | 3363 ft | 293 kts | 61° |
| 2026-05-04 18:24 | 51.96213 | 21.00906 | 3022 ft | 288 kts | 62° |
| 2026-05-04 18:24 | 51.97117 | 21.03660 | 3174 ft | 264 kts | 62° |
| 2026-05-04 18:24 | 51.97927 | 21.06139 | 3498 ft | 249 kts | 61° |
| 2026-05-04 18:25 | 51.98997 | 21.08468 | 3061 ft | 256 kts | 44° |
| 2026-05-04 18:25 | 52.00421 | 21.09980 | 3078 ft | 239 kts | 13° |
| 2026-05-04 18:25 | 52.01975 | 21.09804 | 3121 ft | 220 kts | 328° |
| 2026-05-04 18:25 | 52.03223 | 21.08427 | 3292 ft | 221 kts | 320° |
| 2026-05-04 18:26 | 52.04568 | 21.07113 | 2793 ft | 229 kts | 330° |
| 2026-05-04 18:26 | 52.05940 | 21.06068 | 2439 ft | 206 kts | 329° |
| 2026-05-04 18:26 | 52.07110 | 21.04998 | 2186 ft | 185 kts | 325° |
| 2026-05-04 18:26 | 52.08190 | 21.04032 | 1942 ft | 170 kts | 328° |
| 2026-05-04 18:27 | 52.09194 | 21.03181 | 1713 ft | 156 kts | 327° |
| 2026-05-04 18:27 | 52.10116 | 21.02364 | 1522 ft | 147 kts | 326° |
| 2026-05-04 18:27 | 52.11004 | 21.01586 | 1345 ft | 144 kts | 328° |
| 2026-05-04 18:27 | 52.11889 | 21.00797 | 1144 ft | 147 kts | 327° |
| 2026-05-04 18:28 | 52.12805 | 20.99975 | 948 ft | 148 kts | 329° |
| 2026-05-04 18:28 | 52.13698 | 20.99203 | 743 ft | 145 kts | 330° |
| 2026-05-04 18:28 | 52.14593 | 20.98452 | 548 ft | 146 kts | 328° |
| 2026-05-04 18:28 | 52.15485 | 20.97652 | 388 ft | 145 kts | 329° |
| 2026-05-04 18:29 | 52.16320 | 20.96916 | 337 ft | 123 kts | 333° |
| 2026-05-04 18:29 | 52.16909 | 20.96416 | 336 ft | 74 kts | 333° |
| 2026-05-04 18:29 | 52.17243 | 20.96242 | 334 ft | 40 kts | 4° |
| 2026-05-04 18:29 | 52.17374 | 20.96262 | 336 ft | 11 kts | 29° |
| 2026-05-04 18:30 | 52.17422 | 20.96365 | 336 ft | 4 kts | 66° |
| 2026-05-04 18:30 | 52.17439 | 20.96423 | 334 ft | 7 kts | 64° |
| 2026-05-04 18:30 | 52.17466 | 20.96508 | 337 ft | 10 kts | 64° |
| 2026-05-04 18:31 | 52.17440 | 20.96596 | 337 ft | 11 kts | 153° |
| 2026-05-04 18:31 | 52.17364 | 20.96658 | 334 ft | 13 kts | 152° |
| 2026-05-04 18:31 | 52.17275 | 20.96737 | 336 ft | 16 kts | 151° |
| 2026-05-04 18:31 | 52.17172 | 20.96828 | 333 ft | 18 kts | 151° |
| 2026-05-04 18:32 | 52.17059 | 20.96926 | 336 ft | 20 kts | 152° |
| 2026-05-04 18:32 | 52.16938 | 20.97031 | 337 ft | 19 kts | 152° |
| 2026-05-04 18:32 | 52.16846 | 20.97111 | 334 ft | 13 kts | 152° |
| 2026-05-04 18:32 | 52.16809 | 20.97143 | 337 ft | 7 kts | 152° |
| 2026-05-04 18:33 | 52.16804 | 20.97210 | 337 ft | 7 kts | 79° |
| 2026-05-04 18:33 | 52.16814 | 20.97288 | 337 ft | 4 kts | 78° |
| 2026-05-04 18:33 | 52.16816 | 20.97309 | 337 ft | 0 kts | 78° |
| 2026-05-04 18:33 | 52.16817 | 20.97311 | 337 ft | 0 kts | 78° |